• Join FlightAware (Why Join?)
  • Login
  • US Flag 
01:57PM EST


 

Airport Tracker/Info


-or-


 

Live Flight TrackerFlight Track Log ✈ ASQ6041 ✈ 17-Jul-2013 ✈ KDEN - KGUC

Flight Track Log - Related Links

Times and Time Zones

All times are in EDT time to prevent confusion due to time zone crossing. See the ASQ6041 flight status page for this flight to view local times or setup timezone preferences in your user account.

Time Position Orientation Groundspeed Altitude Reporting Facility
EDT Latitude Longitude Course Direction KTS MPH feet Rate Location/Type
01:33PM 39.8333 -104.7667 251° West 189 217 7,300  Level Denver TRACON
01:34PM 39.8167 -104.8500 255° West 261 300 8,200 1,560 Climbing Denver TRACON
01:35PM 39.7981 -104.9114 248° West 289 333 9,900 2,100 Climbing Denver Center
01:36PM 39.7198 -105.0907 247° West  Level FlightAware Approximate
01:36PM 39.7719 -105.0100 251° West 291 335 12,300  Level Denver Center
01:37PM 39.6849 -105.1953 247° West  Level FlightAware Approximate
01:37PM 39.7222 -105.1494 245° Southwest 326 375 14,100  Level Denver Center
01:38PM 39.6426 -105.2944 251° West  Level FlightAware Approximate
01:38PM 39.6806 -105.2650 245° Southwest 350 403 15,900  Level Denver Center
01:39PM 39.6392 -105.3819 245° Southwest 356 410 17,700 1,620 Climbing Denver Center
01:40PM 39.5939 -105.5044 244° Southwest 348 400 19,300 1,620 Climbing Denver Center
01:41PM 39.5517 -105.6186 244° Southwest 349 402 21,100 1,680 Climbing Denver Center
01:42PM 39.5153 -105.7489 250° West 356 410 22,800 1,380 Climbing Denver Center
01:43PM 39.4822 -105.8736 251° West 352 405 24,000 1,140 Climbing Denver Center
01:44PM 39.4472 -106.0014 251° West 374 430 25,200 960 Climbing Denver Center
01:45PM 39.4108 -106.1317 250° West 384 442 26,000 360 Climbing Denver Center
01:46PM 39.3322 -106.2425 227° Southwest 413 475 26,000  Level Denver Center
01:47PM 39.2206 -106.3456 216° Southwest 437 503 26,000 -420 Level Denver Center
01:48PM 39.1244 -106.4333 215° Southwest 441 507 25,200 -960 Descending Denver Center
01:49PM 39.0128 -106.5350 215° Southwest 438 504 24,100 -960 Descending Denver Center
01:50PM 38.9217 -106.6172 215° Southwest 421 484 23,200 -1,140 Descending Denver Center
01:51PM 38.8364 -106.6947 215° Southwest 401 461 21,800 -1,500 Descending Denver Center
01:53PM 38.7531 -106.7706 215° Southwest 376 433 20,200 -1,560 Descending Denver Center
01:54PM 38.6758 -106.8389 215° Southwest 350 403 18,600 -1,800 Descending Denver Center
01:55PM 38.5942 -106.9128 215° Southwest 308 354 16,500 -1,680 Descending Denver Center
01:56PM 38.5311 -106.9689 215° Southwest 287 330 14,800 -1,140 Descending Denver Center
01:57PM 38.4525 -107.0178 206° Southwest 281 323 14,000 -780 Descending Denver Center